Time;durP1;ratioP1;P1;durP2;ratioP2;P2;SDS_P1;SDS_P2;PMS_P1;PMS_P2;Temp;Humidity;BMP_temperature;BMP_pressure;BME280_temperature;BME280_humidity;BME280_pressure;Samples;Min_cycle;Max_cycle;Signal;HPM_P1;HPM_P2
2022/08/26 00:01:44;;;;;;;12.43;5.03;;;;;;;20.40;100.00;101290.44;6179957;23;20040;-72
2022/08/26 00:04:10;;;;;;;11.25;6.22;;;;;;;20.39;100.00;101296.22;6158686;23;20001;-72
2022/08/26 00:06:36;;;;;;;14.13;6.43;;;;;;;20.33;100.00;101298.97;6158369;23;20005;-72
2022/08/26 00:09:02;;;;;;;15.40;6.65;;;;;;;20.31;100.00;101303.94;6185173;23;20048;-72
2022/08/26 00:11:28;;;;;;;16.98;7.28;;;;;;;20.31;100.00;101303.94;6158568;23;20005;-72
2022/08/26 00:13:55;;;;;;;13.00;6.60;;;;;;;20.27;100.00;101308.34;6185083;23;20020;-71
2022/08/26 00:16:22;;;;;;;15.25;6.90;;;;;;;20.23;100.00;101303.69;6182626;23;20320;-71
2022/08/26 00:18:47;;;;;;;14.73;5.95;;;;;;;20.25;100.00;101313.28;6185053;23;20056;-70
2022/08/26 00:21:12;;;;;;;13.73;6.35;;;;;;;20.26;100.00;101314.94;6158768;23;20427;-72
2022/08/26 00:23:38;;;;;;;15.20;5.82;;;;;;;20.25;100.00;101309.72;6158187;23;20312;-71
2022/08/26 00:26:04;;;;;;;13.20;6.25;;;;;;;20.26;100.00;101314.09;6158794;23;20005;-73
2022/08/26 00:28:30;;;;;;;13.45;6.68;;;;;;;20.25;100.00;101318.78;6184825;23;20009;-72
2022/08/26 00:30:58;;;;;;;12.02;5.85;;;;;;;20.32;100.00;101319.31;6183998;23;20009;-71
2022/08/26 00:33:23;;;;;;;14.35;5.70;;;;;;;20.23;100.00;101303.69;6185158;23;20323;-72
2022/08/26 00:35:49;;;;;;;14.02;6.10;;;;;;;20.24;100.00;101313.56;6184432;23;20090;-71
2022/08/26 00:38:15;;;;;;;14.32;6.38;;;;;;;20.21;100.00;101305.88;6185183;23;20032;-71
2022/08/26 00:40:47;;;;;;;16.65;6.93;;;;;;;20.24;100.00;101314.38;6184967;23;20004;-72
2022/08/26 00:43:12;;;;;;;;;;;;;;;20.35;100.00;101321.50;6185693;23;20032;-72
2022/08/26 00:45:45;;;;;;;15.15;5.78;;;;;;;20.18;100.00;101326.50;6184509;23;19911;-71
2022/08/26 00:48:14;;;;;;;14.27;6.82;;;;;;;20.16;100.00;101309.47;6184660;23;20447;-71
2022/08/26 00:50:48;;;;;;;14.65;6.25;;;;;;;20.15;100.00;101307.81;6184635;23;20028;-73
2022/08/26 00:53:20;;;;;;;14.75;5.65;;;;;;;20.17;100.00;101305.63;6184818;23;20008;-73
2022/08/26 00:55:57;;;;;;;14.90;5.45;;;;;;;20.21;100.00;101309.44;6185834;23;20005;-72
2022/08/26 00:58:26;;;;;;;11.40;5.82;;;;;;;20.22;100.00;101310.28;6185950;23;20040;-72
2022/08/26 01:00:51;;;;;;;15.35;6.20;;;;;;;20.22;100.00;101318.53;6209829;23;20001;-72
2022/08/26 01:03:20;;;;;;;13.80;5.65;;;;;;;20.17;100.00;101322.13;6195466;23;20489;-71
2022/08/26 01:05:46;;;;;;;17.58;6.10;;;;;;;20.18;100.00;101316.34;6158140;23;20405;-72
2022/08/26 01:08:12;;;;;;;16.92;6.07;;;;;;;20.17;100.00;101316.63;6184651;23;20056;-72
2022/08/26 01:10:37;;;;;;;16.42;6.03;;;;;;;20.19;100.00;101315.22;6158243;23;20079;-72
2022/08/26 01:13:08;;;;;;;12.98;5.10;;;;;;;20.21;100.00;101322.38;6184900;23;20001;-72
2022/08/26 01:15:42;;;;;;;14.57;4.80;;;;;;;20.23;100.00;101322.91;6184806;23;20483;-71
2022/08/26 01:18:08;;;;;;;11.20;5.32;;;;;;;20.20;100.00;101324.31;6184400;23;20494;-72
2022/08/26 01:20:50;;;;;;;13.23;5.38;;;;;;;20.16;100.00;101315.78;6183036;23;20032;-71
2022/08/26 01:23:15;;;;;;;;;;;;;;;20.27;100.00;101319.31;6184806;23;20005;-72
2022/08/26 01:25:45;;;;;;;10.52;4.80;;;;;;;20.16;100.00;101314.97;6158019;23;19911;-71
2022/08/26 01:28:20;;;;;;;12.27;4.68;;;;;;;20.16;100.00;101309.47;6158258;23;20009;-72
2022/08/26 01:30:48;;;;;;;12.63;4.45;;;;;;;20.19;100.00;101314.41;6184750;23;20009;-71
2022/08/26 01:33:18;;;;;;;13.05;4.80;;;;;;;20.17;100.00;101305.63;6184772;23;20084;-72
2022/08/26 01:35:44;;;;;;;13.90;4.43;;;;;;;20.15;100.00;101303.13;6179724;23;20009;-73
2022/08/26 01:38:11;;;;;;;12.68;4.65;;;;;;;20.21;100.00;101306.69;6156268;23;20012;-71
2022/08/26 01:40:42;;;;;;;11.55;4.45;;;;;;;20.19;100.00;101303.41;6184332;23;20040;-71
2022/08/26 01:43:13;;;;;;;14.35;4.68;;;;;;;20.18;100.00;101301.75;6157104;23;20102;-72
2022/08/26 01:45:41;;;;;;;13.18;4.60;;;;;;;20.16;100.00;101309.47;6184658;23;20080;-71
2022/08/26 01:48:12;;;;;;;9.95;4.57;;;;;;;20.14;100.00;101312.50;6182482;23;20095;-71
2022/08/26 01:50:38;;;;;;;10.77;4.38;;;;;;;20.14;100.00;101317.16;6182510;23;20005;-72
2022/08/26 01:53:08;;;;;;;11.57;4.35;;;;;;;20.21;100.00;101330.63;6183952;23;20067;-71
2022/08/26 01:55:36;;;;;;;12.57;4.43;;;;;;;20.17;100.00;101319.38;6184077;23;20012;-72
2022/08/26 01:58:06;;;;;;;11.90;4.10;;;;;;;20.17;100.00;101316.63;6183920;23;20054;-71
2022/08/26 02:00:34;;;;;;;8.88;3.95;;;;;;;20.17;100.00;101311.94;6181689;23;20326;-72
2022/08/26 02:03:20;;;;;;;14.18;3.83;;;;;;;20.18;100.00;101327.34;6184412;23;20062;-72
2022/08/26 02:06:07;;;;;;;11.50;3.22;;;;;;;20.22;100.00;101322.09;6157465;23;20019;-72
2022/08/26 02:08:45;;;;;;;11.50;3.15;;;;;;;20.08;100.00;101315.53;6157740;23;20478;-71
2022/08/26 02:11:12;;;;;;;10.52;3.22;;;;;;;20.04;100.00;101322.69;6158290;23;20427;-71
2022/08/26 02:13:43;;;;;;;10.68;3.30;;;;;;;20.03;100.00;101323.78;6159058;23;20445;-72
2022/08/26 02:16:09;;;;;;;12.70;2.80;;;;;;;20.03;100.00;101327.34;6185024;23;20016;-72
2022/08/26 02:18:38;;;;;;;11.88;3.20;;;;;;;20.04;100.00;101326.25;6185851;23;20010;-72
2022/08/26 02:21:05;;;;;;;7.93;2.95;;;;;;;20.01;100.00;101324.88;6159141;23;20017;-72
2022/08/26 02:23:30;;;;;;;13.15;3.05;;;;;;;19.98;100.00;101324.63;6159879;23;20009;-72
2022/08/26 02:26:03;;;;;;;9.57;3.03;;;;;;;20.07;100.00;101333.13;6185937;23;20007;-71
2022/08/26 02:28:32;;;;;;;13.50;2.90;;;;;;;20.08;100.00;101338.34;6185385;23;20075;-72
2022/08/26 02:30:57;;;;;;;11.20;2.60;;;;;;;20.06;100.00;101342.47;6185514;23;20011;-70
2022/08/26 02:33:22;;;;;;;7.10;2.72;;;;;;;20.05;100.00;101344.41;6159655;23;20088;-71
2022/08/26 02:35:48;;;;;;;8.38;2.60;;;;;;;20.01;100.00;101341.34;6159530;23;20012;-72
2022/08/26 02:38:13;;;;;;;8.95;2.72;;;;;;;19.99;100.00;101354.56;6158736;23;20304;-72
2022/08/26 02:40:41;;;;;;;10.82;3.08;;;;;;;19.95;100.00;101342.47;6159700;23;20016;-72
2022/08/26 02:43:07;;;;;;;12.48;3.60;;;;;;;19.99;100.00;101343.56;6159459;23;20024;-71
2022/08/26 02:45:33;;;;;;;12.55;2.63;;;;;;;19.98;100.00;101350.16;6184527;23;20005;-71
2022/08/26 02:48:05;;;;;;;10.07;2.55;;;;;;;19.95;100.00;101342.47;6183851;23;20430;-72
2022/08/26 02:50:31;;;;;;;9.90;2.83;;;;;;;19.99;100.00;101342.75;6185798;23;20033;-72
2022/08/26 02:52:56;;;;;;;8.25;2.63;;;;;;;19.99;100.00;101337.25;6185075;23;20008;-73
2022/08/26 02:55:21;;;;;;;9.00;2.80;;;;;;;19.96;100.00;101333.13;6159449;23;20024;-72
2022/08/26 02:57:47;;;;;;;7.72;3.47;;;;;;;19.91;100.00;101335.88;6159135;23;20001;-71
2022/08/26 03:00:14;;;;;;;7.93;2.55;;;;;;;19.88;100.00;101335.59;6158999;23;20043;-71
2022/08/26 03:02:39;;;;;;;10.50;3.85;;;;;;;19.81;100.00;101342.22;6156953;23;20066;-71
2022/08/26 03:05:06;;;;;;;9.93;3.10;;;;;;;19.80;100.00;101347.97;6158926;23;20044;-72
2022/08/26 03:07:31;;;;;;;9.30;3.20;;;;;;;19.85;100.00;101334.22;6185130;23;20492;-71
2022/08/26 03:09:57;;;;;;;10.07;3.40;;;;;;;19.83;100.00;101334.50;6185119;23;20005;-71
2022/08/26 03:12:23;;;;;;;11.07;3.55;;;;;;;19.83;100.00;101333.69;6159414;23;20059;-72
2022/08/26 03:14:48;;;;;;;8.35;3.20;;;;;;;19.84;100.00;101340.84;6185512;23;20004;-72
2022/08/26 03:17:14;;;;;;;12.80;3.40;;;;;;;19.82;100.00;101338.38;6159007;23;20312;-71
2022/08/26 03:19:40;;;;;;;11.45;3.60;;;;;;;19.77;100.00;101335.59;6159598;23;20102;-72
2022/08/26 03:22:06;;;;;;;9.52;3.47;;;;;;;19.72;100.00;101337.53;6158545;23;20013;-71
2022/08/26 03:24:31;;;;;;;10.82;3.85;;;;;;;19.71;100.00;101341.34;6185469;23;20060;-72
2022/08/26 03:26:56;;;;;;;11.65;3.63;;;;;;;19.65;100.00;101333.09;6158738;23;20015;-72
2022/08/26 03:32:07;;;;;;;10.68;3.08;;;;;;;19.65;100.00;101348.75;6185012;23;20510;-72
2022/08/26 03:34:33;;;;;;;13.57;3.20;;;;;;;19.63;100.00;101350.97;6184397;23;20044;-71
2022/08/26 03:36:59;;;;;;;8.60;3.13;;;;;;;19.65;100.00;101351.50;6159882;23;20005;-72
2022/08/26 03:39:24;;;;;;;10.45;3.47;;;;;;;19.64;100.00;101347.94;6186090;23;20389;-72
2022/08/26 03:41:51;;;;;;;8.82;3.30;;;;;;;19.64;100.00;101344.34;6171971;23;20001;-72
2022/08/26 03:44:16;;;;;;;13.02;3.15;;;;;;;19.60;100.00;101344.09;6212022;23;20005;-72
2022/08/26 03:46:42;;;;;;;10.45;3.28;;;;;;;19.64;100.00;101339.72;6160316;23;20046;-71
2022/08/26 03:49:07;;;;;;;12.15;2.88;;;;;;;19.65;100.00;101344.09;6159086;23;20009;-71
2022/08/26 03:51:35;;;;;;;8.20;2.70;;;;;;;19.60;100.00;101343.28;6185525;23;20005;-72
2022/08/26 03:54:01;;;;;;;6.65;3.03;;;;;;;19.59;100.00;101350.69;6183246;23;20040;-71
2022/08/26 03:56:27;;;;;;;10.13;2.83;;;;;;;19.61;100.00;101353.16;6184955;23;20012;-71
2022/08/26 03:58:53;;;;;;;9.23;2.47;;;;;;;19.59;100.00;101347.13;6184645;23;20009;-71
2022/08/26 04:01:19;;;;;;;9.05;2.50;;;;;;;19.67;100.00;101352.03;6182488;23;20008;-72
2022/08/26 04:03:57;;;;;;;6.13;2.55;;;;;;;19.63;100.00;101351.78;6157932;23;20071;-72
2022/08/26 04:06:35;;;;;;;11.10;2.97;;;;;;;19.64;100.00;101361.69;6184755;23;20005;-70
2022/08/26 04:09:04;;;;;;;8.32;2.83;;;;;;;19.61;100.00;101354.00;6184944;23;20045;-71
2022/08/26 04:11:31;;;;;;;7.07;2.50;;;;;;;19.58;100.00;101351.78;6184985;23;20051;-72
2022/08/26 04:13:58;;;;;;;11.48;2.92;;;;;;;19.58;100.00;101343.56;6184239;23;20005;-72
2022/08/26 04:16:24;;;;;;;11.35;2.58;;;;;;;19.61;100.00;101348.50;6184881;23;20009;-72
2022/08/26 04:18:50;;;;;;;5.38;2.50;;;;;;;19.59;100.00;101339.69;6158359;23;20009;-71
2022/08/26 04:21:15;;;;;;;10.57;2.40;;;;;;;19.62;100.00;101347.38;6158740;23;20304;-71
2022/08/26 04:23:40;;;;;;;7.82;2.30;;;;;;;19.63;100.00;101338.06;6158655;23;20048;-71
2022/08/26 04:26:06;;;;;;;11.05;2.90;;;;;;;19.65;100.00;101354.25;6184477;23;20081;-72
2022/08/26 04:28:31;;;;;;;7.55;2.50;;;;;;;19.61;100.00;101344.91;6183635;23;20490;-72
2022/08/26 04:30:56;;;;;;;11.57;2.80;;;;;;;19.61;100.00;101350.41;6184420;23;20005;-71
2022/08/26 04:33:22;;;;;;;12.32;2.75;;;;;;;19.55;100.00;101349.59;6184722;23;20001;-70
2022/08/26 04:35:48;;;;;;;12.27;2.80;;;;;;;19.52;100.00;101339.16;6184948;23;20070;-72
2022/08/26 04:38:15;;;;;;;10.07;2.58;;;;;;;19.54;100.00;101342.44;6184766;23;20180;-71
2022/08/26 04:40:45;;;;;;;10.52;2.90;;;;;;;19.53;100.00;101348.22;6184658;23;20001;-72
2022/08/26 04:43:10;;;;;;;11.40;2.50;;;;;;;19.48;100.00;101358.09;6157450;23;20383;-71
2022/08/26 04:45:37;;;;;;;7.20;2.53;;;;;;;19.41;100.00;101354.78;6158551;23;20008;-71
2022/08/26 04:48:02;;;;;;;9.27;2.38;;;;;;;19.41;100.00;101359.44;6184740;23;20073;-72
2022/08/26 04:50:28;;;;;;;6.68;2.45;;;;;;;19.41;100.00;101353.97;6183155;23;20013;-72
2022/08/26 04:52:54;;;;;;;9.32;2.53;;;;;;;19.42;100.00;101356.44;6184890;23;20009;-72
2022/08/26 04:55:19;;;;;;;6.35;2.28;;;;;;;19.45;100.00;101355.06;6183092;23;20079;-72
2022/08/26 04:57:45;;;;;;;9.48;2.50;;;;;;;19.45;100.00;101352.31;6184519;23;20423;-71
2022/08/26 05:00:12;;;;;;;8.52;2.30;;;;;;;19.43;100.00;101355.34;6159856;23;20059;-71
2022/08/26 05:02:37;;;;;;;8.98;2.58;;;;;;;19.44;100.00;101347.91;6181348;23;20061;-72
2022/08/26 05:05:04;;;;;;;8.63;2.40;;;;;;;19.49;100.00;101356.19;6185250;23;20004;-72
2022/08/26 05:07:30;;;;;;;5.70;2.22;;;;;;;19.49;100.00;101356.19;6183121;23;20015;-72
2022/08/26 05:09:55;;;;;;;6.07;2.08;;;;;;;19.51;100.00;101362.22;6184656;23;20076;-72
2022/08/26 05:12:22;;;;;;;12.77;2.55;;;;;;;19.50;100.00;101362.47;6184014;23;20004;-72
2022/08/26 05:14:47;;;;;;;9.30;2.40;;;;;;;19.43;100.00;101359.97;6183283;23;20038;-71
2022/08/26 05:17:12;;;;;;;10.38;2.70;;;;;;;19.43;100.00;101368.22;6157528;23;20013;-71
2022/08/26 05:19:38;;;;;;;4.82;2.00;;;;;;;19.42;100.00;101366.59;6158548;23;20052;-72
2022/08/26 05:22:04;;;;;;;10.43;2.70;;;;;;;19.45;100.00;101366.03;6184191;23;20453;-71
2022/08/26 05:24:29;;;;;;;6.90;2.10;;;;;;;19.49;100.00;101358.94;6158450;23;20075;-72
2022/08/26 05:26:55;;;;;;;8.70;2.30;;;;;;;19.49;100.00;101358.94;6184477;23;20354;-72
2022/08/26 05:29:20;;;;;;;6.18;2.05;;;;;;;19.53;100.00;101354.50;6184502;23;20076;-73
2022/08/26 05:31:49;;;;;;;10.38;2.70;;;;;;;19.55;100.00;101366.06;6184016;23;20038;-73
2022/08/26 05:34:14;;;;;;;9.90;2.30;;;;;;;19.54;100.00;101369.91;6157634;23;20009;-72
2022/08/26 05:36:40;;;;;;;7.15;2.30;;;;;;;19.54;100.00;101363.59;6158442;23;20435;-72
2022/08/26 05:39:06;;;;;;;8.80;2.20;;;;;;;19.54;100.00;101367.16;6158115;23;20001;-72
2022/08/26 05:41:34;;;;;;;8.73;2.42;;;;;;;19.57;100.00;101374.84;6158098;23;20012;-71
2022/08/26 05:44:01;;;;;;;6.40;2.20;;;;;;;19.58;100.00;101370.16;6184047;23;20378;-72
2022/08/26 05:46:27;;;;;;;8.57;2.38;;;;;;;19.62;100.00;101376.75;6156731;23;20005;-72
2022/08/26 05:48:53;;;;;;;7.55;2.10;;;;;;;19.59;100.00;101377.31;6185456;23;20079;-72
2022/08/26 05:51:19;;;;;;;8.80;2.20;;;;;;;19.58;100.00;101381.16;6186339;23;20101;-73
2022/08/26 05:53:45;;;;;;;8.32;2.53;;;;;;;19.60;100.00;101385.28;6186117;23;20047;-72
2022/08/26 05:56:11;;;;;;;7.63;2.25;;;;;;;19.57;100.00;101398.72;6185536;23;20005;-74
2022/08/26 05:58:39;;;;;;;13.77;2.30;;;;;;;19.56;100.00;101391.59;6186246;23;20001;-74
2022/08/26 06:01:11;;;;;;;11.35;2.15;;;;;;;19.56;100.00;101395.16;6183153;23;20037;-73
2022/08/26 06:03:39;;;;;;;10.90;2.25;;;;;;;19.56;100.00;101392.41;6186653;23;20012;-72
2022/08/26 06:06:06;;;;;;;8.13;2.00;;;;;;;19.61;100.00;101402.56;6185966;23;20052;-73
2022/08/26 06:08:32;;;;;;;10.45;2.15;;;;;;;19.65;100.00;101401.75;6159873;23;20009;-73
2022/08/26 06:11:10;;;;;;;8.15;2.42;;;;;;;19.65;100.00;101409.97;6185896;23;20016;-76
2022/08/26 06:13:46;;;;;;;7.72;1.95;;;;;;;19.75;100.00;101408.38;6182376;23;20052;-76
2022/08/26 06:16:23;;;;;;;6.18;2.20;;;;;;;19.81;100.00;101410.03;6184688;23;20358;-76
2022/08/26 06:18:51;;;;;;;6.75;1.88;;;;;;;19.84;100.00;101409.50;6184624;23;20005;-73
2022/08/26 06:21:25;;;;;;;8.02;1.83;;;;;;;19.92;100.00;101414.44;6184668;23;20080;-75
2022/08/26 06:26:39;;;;;;;7.75;1.67;;;;;;;20.01;100.00;101421.03;6199100;23;20064;-75
2022/08/26 06:29:06;;;;;;;8.77;2.17;;;;;;;20.02;100.00;101419.13;6213406;23;20001;-76
2022/08/26 06:31:35;;;;;;;7.40;1.90;;;;;;;19.95;100.00;101430.38;6191327;23;20051;-76
2022/08/26 06:34:02;;;;;;;10.88;2.28;;;;;;;19.94;100.00;101417.75;6185747;23;20040;-76
2022/08/26 06:36:29;;;;;;;9.50;1.83;;;;;;;19.97;100.00;101433.69;6184669;23;20071;-76
2022/08/26 06:38:59;;;;;;;8.25;1.65;;;;;;;19.98;100.00;101424.31;6184514;23;20036;-75
2022/08/26 06:41:24;;;;;;;9.07;1.90;;;;;;;19.98;100.00;101421.56;6183998;23;20020;-77
2022/08/26 06:43:50;;;;;;;8.63;2.22;;;;;;;19.97;100.00;101425.44;6185832;23;20008;-73
2022/08/26 06:46:18;;;;;;;5.53;1.60;;;;;;;19.98;100.00;101420.75;6185841;23;20039;-73
2022/08/26 06:48:49;;;;;;;10.70;2.00;;;;;;;20.05;100.00;101432.31;6185965;23;20013;-81
2022/08/26 06:51:21;;;;;;;9.02;2.10;;;;;;;20.09;100.00;101432.56;6184005;23;20427;-80
2022/08/26 06:53:49;;;;;;;7.57;2.05;;;;;;;20.08;100.00;101430.91;6184086;23;20435;-76
2022/08/26 06:56:18;;;;;;;6.57;1.60;;;;;;;20.08;100.00;101433.66;6185374;23;20019;-73
2022/08/26 06:58:43;;;;;;;9.38;1.63;;;;;;;20.16;100.00;101436.69;6185500;23;19997;-75
2022/08/26 07:01:24;;;;;;;6.80;1.80;;;;;;;20.14;100.00;101433.41;6182151;23;20079;-74
2022/08/26 07:03:53;;;;;;;7.63;1.90;;;;;;;20.15;100.00;101434.22;6185437;23;20051;-75
2022/08/26 07:06:18;;;;;;;6.22;1.63;;;;;;;20.14;100.00;101438.03;6159271;23;20013;-74
2022/08/26 07:08:49;;;;;;;8.48;1.50;;;;;;;20.12;100.00;101437.50;6185221;23;20017;-73
2022/08/26 07:11:15;;;;;;;8.65;1.70;;;;;;;20.16;100.00;101433.13;6185656;23;20012;-73
2022/08/26 07:13:40;;;;;;;8.85;2.08;;;;;;;20.10;100.00;101421.31;6186069;23;20005;-74
2022/08/26 07:16:11;;;;;;;7.75;1.70;;;;;;;20.05;100.00;101435.06;6185277;23;20063;-74
2022/08/26 07:18:38;;;;;;;8.73;2.08;;;;;;;19.99;100.00;101425.97;6185773;23;20132;-74
2022/08/26 07:21:06;;;;;;;6.75;1.80;;;;;;;20.05;100.00;101434.19;6185351;23;20008;-72
2022/08/26 07:23:33;;;;;;;13.25;1.98;;;;;;;20.07;100.00;101432.84;6183017;23;20450;-74
2022/08/26 07:25:59;;;;;;;6.88;1.60;;;;;;;20.13;100.00;101437.22;6185046;23;20009;-73
2022/08/26 07:28:24;;;;;;;9.70;1.73;;;;;;;20.20;100.00;101439.72;6185052;23;20342;-74
2022/08/26 07:30:50;;;;;;;8.55;1.70;;;;;;;20.20;100.00;101447.97;6184948;23;20013;-76
2022/08/26 07:33:16;;;;;;;7.13;1.42;;;;;;;20.15;100.00;101445.19;6159024;23;20055;-72
2022/08/26 07:35:43;;;;;;;7.63;1.90;;;;;;;20.21;100.00;101444.09;6185645;23;20009;-72
2022/08/26 07:38:09;;;;;;;8.45;1.63;;;;;;;20.26;100.00;101441.38;6185523;23;20008;-72
2022/08/26 07:40:34;;;;;;;10.63;1.60;;;;;;;20.32;100.00;101440.25;6185804;23;20330;-72
2022/08/26 07:43:00;;;;;;;8.05;1.50;;;;;;;20.43;100.00;101451.25;6189200;23;20008;-71
2022/08/26 07:45:25;;;;;;;7.32;1.58;;;;;;;20.44;100.00;101445.47;6191621;23;20012;-71
2022/08/26 07:47:50;;;;;;;7.70;2.10;;;;;;;20.49;100.00;101452.88;6159081;23;20005;-72
2022/08/26 07:50:16;;;;;;;9.25;1.92;;;;;;;20.52;100.00;101457.81;6184053;23;20016;-73
2022/08/26 07:52:41;;;;;;;10.68;1.70;;;;;;;20.49;100.00;101455.63;6185095;23;20080;-71
2022/08/26 07:55:09;;;;;;;10.75;2.20;;;;;;;20.51;100.00;101453.41;6185153;23;20008;-74
2022/08/26 07:57:34;;;;;;;6.03;1.80;;;;;;;20.60;100.00;101451.75;6184294;23;20296;-77
2022/08/26 08:00:02;;;;;;;5.22;1.60;;;;;;;20.66;100.00;101456.16;6185002;23;20039;-76
2022/08/26 08:02:28;;;;;;;9.75;2.00;;;;;;;20.66;100.00;101460.84;6179665;23;20091;-74
2022/08/26 08:04:54;;;;;;;6.72;1.60;;;;;;;20.67;100.00;101463.31;6158868;23;20005;-73
2022/08/26 08:07:20;;;;;;;14.20;1.75;;;;;;;20.76;100.00;101466.34;6184854;23;20419;-70
2022/08/26 08:09:48;;;;;;;6.53;1.90;;;;;;;20.76;100.00;101460.84;6158217;23;20040;-70
2022/08/26 08:12:14;;;;;;;8.57;1.60;;;;;;;20.78;100.00;101468.81;6184778;23;20008;-71
2022/08/26 08:14:39;;;;;;;9.95;1.70;;;;;;;20.73;100.00;101471.53;6185335;23;20330;-70
2022/08/26 08:17:05;;;;;;;8.48;1.85;;;;;;;20.77;100.00;101467.97;6184619;23;20327;-70
2022/08/26 08:19:30;;;;;;;8.15;1.60;;;;;;;20.87;100.00;101465.19;6185230;23;20001;-70
2022/08/26 08:21:55;;;;;;;6.28;1.60;;;;;;;20.86;100.00;101462.72;6185243;23;20001;-71
2022/08/26 08:24:20;;;;;;;7.57;1.80;;;;;;;20.86;99.05;101463.56;6184927;23;20346;-70
2022/08/26 08:26:46;;;;;;;7.50;1.70;;;;;;;20.88;95.79;101463.28;6184726;23;20009;-74
2022/08/26 08:29:12;;;;;;;7.78;1.55;;;;;;;20.83;99.07;101466.03;6184814;23;20005;-71
2022/08/26 08:31:38;;;;;;;10.38;1.60;;;;;;;20.80;99.28;101461.09;6184328;23;20001;-69
2022/08/26 08:34:04;;;;;;;6.57;1.40;;;;;;;20.75;95.72;101461.94;6184544;23;20060;-69
2022/08/26 08:36:29;;;;;;;6.07;1.50;;;;;;;20.83;100.00;101472.34;6184446;23;20030;-68
2022/08/26 08:38:54;;;;;;;10.95;1.60;;;;;;;20.85;100.00;101466.59;6184825;23;20071;-69
2022/08/26 08:41:36;;;;;;;6.05;1.35;;;;;;;20.87;99.15;101470.69;6182908;23;20013;-68
2022/08/26 08:44:01;;;;;;;;;;;;;;;20.98;98.10;101474.22;6185010;23;20001;-69
2022/08/26 08:46:28;;;;;;;8.90;1.70;;;;;;;20.95;97.59;101468.47;6184687;23;19915;-68
2022/08/26 08:48:58;;;;;;;6.28;1.38;;;;;;;20.98;96.71;101476.16;6158493;23;20454;-69
2022/08/26 08:51:32;;;;;;;8.05;1.50;;;;;;;21.01;96.23;101479.16;6183746;23;20028;-68
2022/08/26 08:53:59;;;;;;;6.97;1.77;;;;;;;20.98;96.13;101478.91;6184597;23;20427;-68
2022/08/26 08:56:51;;;;;;;9.07;1.73;;;;;;;20.97;96.85;101475.34;6184480;23;20085;-68
2022/08/26 08:59:25;;;;;;;4.07;1.45;;;;;;;21.00;95.11;101479.44;6158379;23;20008;-70
2022/08/26 09:01:51;;;;;;;6.65;1.75;;;;;;;20.99;93.49;101475.88;6181323;23;20016;-68
2022/08/26 09:04:22;;;;;;;9.25;1.73;;;;;;;20.96;95.74;101484.69;6184149;23;20001;-72
2022/08/26 09:06:48;;;;;;;;;;;;;;;21.04;93.21;101484.09;6185407;23;20381;-70
2022/08/26 09:09:22;;;;;;;10.50;2.05;;;;;;;20.92;95.31;101489.09;6184024;23;19944;-70
2022/08/26 09:11:47;;;;;;;6.53;1.60;;;;;;;20.90;95.00;101480.31;6184597;23;20068;-71
2022/08/26 09:14:13;;;;;;;9.07;1.70;;;;;;;20.95;93.67;101471.22;6185754;23;20411;-71
2022/08/26 09:17:01;;;;;;;5.57;1.65;;;;;;;21.02;94.56;101478.06;6210307;23;19993;-75
2022/08/26 09:19:37;;;;;;;11.07;1.90;;;;;;;21.08;94.29;101473.38;6195374;23;20028;-69
2022/08/26 09:22:03;;;;;;;8.55;1.73;;;;;;;21.13;89.25;101489.06;6157061;23;20005;-70
2022/08/26 09:24:30;;;;;;;6.65;1.38;;;;;;;21.18;87.45;101473.34;6183937;23;20005;-70
2022/08/26 09:26:57;;;;;;;13.23;2.13;;;;;;;21.15;85.16;101479.41;6184839;23;20032;-70
2022/08/26 09:29:28;;;;;;;6.97;1.67;;;;;;;21.13;86.53;101489.88;6186194;23;20005;-71
2022/08/26 09:32:15;;;;;;;7.65;1.50;;;;;;;21.20;87.03;101489.59;6160035;23;20512;-70
2022/08/26 09:35:20;;;;;;;7.07;1.70;;;;;;;21.14;89.54;101487.97;6186773;23;20056;-70
2022/08/26 09:37:48;;;;;;;8.27;1.92;;;;;;;21.26;88.73;101502.22;6153671;23;20024;-72
2022/08/26 09:40:25;;;;;;;10.63;1.90;;;;;;;21.22;87.76;101495.63;6185741;23;20009;-72
2022/08/26 09:43:12;;;;;;;6.43;1.40;;;;;;;21.23;89.10;101498.09;6159977;23;20005;-70
2022/08/26 09:45:42;;;;;;;8.13;1.70;;;;;;;21.11;89.19;101500.34;6160176;23;20331;-73
2022/08/26 09:48:07;;;;;;;7.32;1.70;;;;;;;21.07;89.46;101493.75;6186357;23;20079;-72
2022/08/26 09:51:04;;;;;;;9.85;1.67;;;;;;;21.09;91.25;101493.47;6186135;23;20035;-71
2022/08/26 09:53:35;;;;;;;8.05;1.85;;;;;;;21.09;91.71;101493.47;6184015;23;20516;-72
2022/08/26 09:56:11;;;;;;;8.05;1.70;;;;;;;21.11;91.81;101496.78;6186072;23;20088;-71
2022/08/26 09:58:40;;;;;;;6.90;1.58;;;;;;;21.10;90.60;101497.88;6185574;23;20005;-71
2022/08/26 10:01:28;;;;;;;6.25;1.40;;;;;;;21.07;90.12;101504.75;6183174;23;20008;-75
2022/08/26 10:04:03;;;;;;;8.90;2.05;;;;;;;21.04;90.65;101497.88;6184418;23;20013;-70
2022/08/26 10:06:29;;;;;;;7.97;1.80;;;;;;;20.99;90.01;101495.16;6185957;23;20087;-70
2022/08/26 10:08:57;;;;;;;6.78;1.83;;;;;;;21.00;87.88;101505.06;6158677;23;20514;-70
2022/08/26 10:11:44;;;;;;;5.97;1.63;;;;;;;21.05;88.37;101504.22;6182821;23;20005;-69
2022/08/26 10:14:31;;;;;;;8.00;1.60;;;;;;;21.03;89.53;101499.00;6185211;23;20008;-70
2022/08/26 10:17:09;;;;;;;8.95;1.77;;;;;;;21.09;88.88;101501.72;6159484;23;20060;-74
2022/08/26 10:19:45;;;;;;;8.63;1.40;;;;;;;21.12;87.43;101496.50;6185523;23;20475;-71
2022/08/26 10:22:23;;;;;;;6.95;1.77;;;;;;;21.18;88.28;101498.13;6187484;23;20001;-72
2022/08/26 10:24:53;;;;;;;7.35;1.52;;;;;;;21.15;87.62;101495.09;6185897;23;20423;-71
2022/08/26 10:27:42;;;;;;;7.20;1.40;;;;;;;21.18;87.89;101491.78;6185907;23;20363;-71
2022/08/26 10:30:15;;;;;;;6.85;1.55;;;;;;;21.18;85.71;101489.03;6184691;23;20327;-71
2022/08/26 10:32:59;;;;;;;14.43;1.88;;;;;;;21.25;87.29;101495.88;6186235;23;20047;-73
2022/08/26 10:35:27;;;;;;;10.30;2.33;;;;;;;21.25;84.48;101504.13;6159551;23;20423;-74
2022/08/26 10:37:56;;;;;;;7.28;1.38;;;;;;;21.30;84.61;101499.72;6185958;23;20445;-73
2022/08/26 10:40:55;;;;;;;8.70;1.63;;;;;;;21.19;83.76;101497.00;6182366;23;20017;-73
2022/08/26 10:43:25;;;;;;;6.65;1.50;;;;;;;21.27;85.76;101494.78;6151914;23;20008;-72
2022/08/26 10:46:01;;;;;;;7.95;1.65;;;;;;;21.29;84.31;101487.88;6159739;23;20005;-70
2022/08/26 10:48:39;;;;;;;6.43;1.52;;;;;;;21.32;84.22;101492.81;6159555;23;20429;-70
2022/08/26 10:51:05;;;;;;;12.85;1.70;;;;;;;21.35;84.17;101484.00;6186455;23;20497;-71
2022/08/26 10:53:51;;;;;;;6.30;1.67;;;;;;;21.33;83.72;101491.72;6159713;23;20040;-70
2022/08/26 10:57:13;;;;;;;5.82;1.35;;;;;;;21.43;81.84;101493.59;6159483;23;20099;-71
2022/08/26 11:01:40;;;;;;;9.82;1.17;;;;;;;21.15;82.47;101497.84;6185894;23;20005;-74
2022/08/26 11:03:02;;;;;;;7.07;1.50;;;;;;;21.04;83.44;101492.38;6182949;23;20088;-73
2022/08/26 11:05:28;;;;;;;9.00;1.58;;;;;;;21.07;83.16;101493.75;6184814;23;20009;-73
2022/08/26 11:08:16;;;;;;;9.30;1.50;;;;;;;21.06;83.15;101503.94;6177369;23;20039;-74
2022/08/26 11:10:41;;;;;;;4.63;1.00;;;;;;;20.98;82.97;101500.94;6157590;23;20013;-72
2022/08/26 11:13:06;;;;;;;12.05;1.77;;;;;;;20.92;83.86;101502.03;6184152;23;20001;-72
2022/08/26 11:15:31;;;;;;;8.75;1.40;;;;;;;20.93;83.63;101495.44;6183561;23;20012;-70
2022/08/26 11:18:00;;;;;;;7.55;1.60;;;;;;;20.93;84.63;101496.25;6183922;23;20080;-74
2022/08/26 11:21:09;;;;;;;8.52;1.40;;;;;;;20.92;84.71;101500.09;6184048;23;20015;-73
2022/08/26 11:23:43;;;;;;;6.40;1.50;;;;;;;20.83;84.08;101493.53;6182958;23;20012;-74
2022/08/26 11:26:08;;;;;;;6.43;1.20;;;;;;;20.82;86.84;101500.97;6183752;23;20013;-76
2022/08/26 11:28:43;;;;;;;7.50;1.60;;;;;;;20.83;86.54;101493.53;6183735;23;20369;-72
2022/08/26 11:31:22;;;;;;;10.23;1.85;;;;;;;20.78;86.13;101501.81;6184256;23;20001;-73
2022/08/26 11:33:50;;;;;;;8.82;1.60;;;;;;;20.80;88.05;101494.91;6183356;23;20015;-70